sensor_id;sensor_type;location;lat;lon;timestamp;P1;durP1;ratioP1;P2;durP2;ratioP2
2542;SDS011;1116;51.502;7.414;2023-06-19T00:02:30;6.70;;;4.80;;
2542;SDS011;1116;51.502;7.414;2023-06-19T00:05:01;5.37;;;4.87;;
2542;SDS011;1116;51.502;7.414;2023-06-19T00:07:32;5.30;;;4.80;;
2542;SDS011;1116;51.502;7.414;2023-06-19T00:10:06;5.20;;;4.80;;
2542;SDS011;1116;51.502;7.414;2023-06-19T00:12:37;4.83;;;4.50;;
2542;SDS011;1116;51.502;7.414;2023-06-19T00:15:08;4.83;;;4.43;;
2542;SDS011;1116;51.502;7.414;2023-06-19T00:17:40;5.60;;;5.10;;
2542;SDS011;1116;51.502;7.414;2023-06-19T00:20:11;5.90;;;5.30;;
2542;SDS011;1116;51.502;7.414;2023-06-19T00:22:44;5.27;;;4.80;;
2542;SDS011;1116;51.502;7.414;2023-06-19T00:25:22;6.20;;;4.73;;
2542;SDS011;1116;51.502;7.414;2023-06-19T00:27:53;4.97;;;4.63;;
2542;SDS011;1116;51.502;7.414;2023-06-19T00:30:24;6.00;;;4.90;;
2542;SDS011;1116;51.502;7.414;2023-06-19T00:33:00;5.20;;;4.80;;
2542;SDS011;1116;51.502;7.414;2023-06-19T00:35:31;5.60;;;5.20;;
2542;SDS011;1116;51.502;7.414;2023-06-19T00:38:02;6.47;;;5.87;;
2542;SDS011;1116;51.502;7.414;2023-06-19T00:40:35;5.17;;;4.67;;
2542;SDS011;1116;51.502;7.414;2023-06-19T00:43:06;5.57;;;5.07;;
2542;SDS011;1116;51.502;7.414;2023-06-19T00:45:37;6.03;;;5.53;;
2542;SDS011;1116;51.502;7.414;2023-06-19T00:48:08;5.47;;;5.03;;
2542;SDS011;1116;51.502;7.414;2023-06-19T00:50:39;5.50;;;5.00;;
2542;SDS011;1116;51.502;7.414;2023-06-19T00:53:10;5.33;;;4.90;;
2542;SDS011;1116;51.502;7.414;2023-06-19T00:55:44;5.70;;;5.30;;
2542;SDS011;1116;51.502;7.414;2023-06-19T00:58:16;6.00;;;5.50;;
2542;SDS011;1116;51.502;7.414;2023-06-19T01:00:47;5.53;;;5.13;;
2542;SDS011;1116;51.502;7.414;2023-06-19T01:03:34;4.97;;;4.60;;
2542;SDS011;1116;51.502;7.414;2023-06-19T01:06:08;6.43;;;5.83;;
2542;SDS011;1116;51.502;7.414;2023-06-19T01:08:47;5.73;;;5.30;;
2542;SDS011;1116;51.502;7.414;2023-06-19T01:11:24;5.80;;;5.30;;
2542;SDS011;1116;51.502;7.414;2023-06-19T01:14:02;5.60;;;5.20;;
2542;SDS011;1116;51.502;7.414;2023-06-19T01:16:38;5.17;;;4.77;;
2542;SDS011;1116;51.502;7.414;2023-06-19T01:19:10;5.73;;;5.33;;
2542;SDS011;1116;51.502;7.414;2023-06-19T01:21:44;7.17;;;4.90;;
2542;SDS011;1116;51.502;7.414;2023-06-19T01:24:18;5.43;;;5.03;;
2542;SDS011;1116;51.502;7.414;2023-06-19T01:26:49;5.70;;;5.27;;
2542;SDS011;1116;51.502;7.414;2023-06-19T01:29:20;5.77;;;5.37;;
2542;SDS011;1116;51.502;7.414;2023-06-19T01:31:52;5.67;;;5.20;;
2542;SDS011;1116;51.502;7.414;2023-06-19T01:34:30;5.80;;;5.30;;
2542;SDS011;1116;51.502;7.414;2023-06-19T01:37:03;5.27;;;4.90;;
2542;SDS011;1116;51.502;7.414;2023-06-19T01:39:39;6.00;;;5.60;;
2542;SDS011;1116;51.502;7.414;2023-06-19T01:42:11;5.20;;;4.80;;
2542;SDS011;1116;51.502;7.414;2023-06-19T01:44:43;5.43;;;5.03;;
2542;SDS011;1116;51.502;7.414;2023-06-19T01:47:15;5.77;;;5.27;;
2542;SDS011;1116;51.502;7.414;2023-06-19T01:49:47;5.90;;;5.50;;
2542;SDS011;1116;51.502;7.414;2023-06-19T01:52:18;4.93;;;4.63;;
2542;SDS011;1116;51.502;7.414;2023-06-19T01:54:51;5.50;;;5.10;;
2542;SDS011;1116;51.502;7.414;2023-06-19T01:57:22;6.20;;;5.70;;
2542;SDS011;1116;51.502;7.414;2023-06-19T01:59:54;5.17;;;4.67;;
2542;SDS011;1116;51.502;7.414;2023-06-19T02:02:25;5.70;;;5.27;;
2542;SDS011;1116;51.502;7.414;2023-06-19T02:04:56;5.30;;;4.80;;
2542;SDS011;1116;51.502;7.414;2023-06-19T02:07:27;5.93;;;5.47;;
2542;SDS011;1116;51.502;7.414;2023-06-19T02:10:01;5.73;;;5.33;;
2542;SDS011;1116;51.502;7.414;2023-06-19T02:12:32;5.50;;;5.10;;
2542;SDS011;1116;51.502;7.414;2023-06-19T02:15:04;6.10;;;5.60;;
2542;SDS011;1116;51.502;7.414;2023-06-19T02:17:36;5.20;;;4.80;;
2542;SDS011;1116;51.502;7.414;2023-06-19T02:20:07;5.70;;;5.30;;
2542;SDS011;1116;51.502;7.414;2023-06-19T02:22:40;5.70;;;5.30;;
2542;SDS011;1116;51.502;7.414;2023-06-19T02:25:13;5.70;;;5.20;;
2542;SDS011;1116;51.502;7.414;2023-06-19T02:27:46;5.47;;;5.03;;
2542;SDS011;1116;51.502;7.414;2023-06-19T02:30:17;5.23;;;4.83;;
2542;SDS011;1116;51.502;7.414;2023-06-19T02:32:48;6.10;;;5.60;;
2542;SDS011;1116;51.502;7.414;2023-06-19T02:35:19;5.80;;;5.40;;
2542;SDS011;1116;51.502;7.414;2023-06-19T02:37:50;5.70;;;5.20;;
2542;SDS011;1116;51.502;7.414;2023-06-19T02:40:26;5.37;;;4.97;;
2542;SDS011;1116;51.502;7.414;2023-06-19T02:42:58;6.33;;;5.83;;
2542;SDS011;1116;51.502;7.414;2023-06-19T02:45:29;6.63;;;6.03;;
2542;SDS011;1116;51.502;7.414;2023-06-19T02:48:00;5.60;;;5.20;;
2542;SDS011;1116;51.502;7.414;2023-06-19T02:50:31;6.27;;;5.77;;
2542;SDS011;1116;51.502;7.414;2023-06-19T02:53:02;6.20;;;5.70;;
2542;SDS011;1116;51.502;7.414;2023-06-19T02:55:35;6.30;;;5.80;;
2542;SDS011;1116;51.502;7.414;2023-06-19T02:58:06;5.93;;;5.47;;
2542;SDS011;1116;51.502;7.414;2023-06-19T03:00:38;6.10;;;5.60;;
2542;SDS011;1116;51.502;7.414;2023-06-19T03:03:09;5.93;;;5.43;;
2542;SDS011;1116;51.502;7.414;2023-06-19T03:05:40;6.20;;;5.70;;
2542;SDS011;1116;51.502;7.414;2023-06-19T03:08:11;7.00;;;6.40;;
2542;SDS011;1116;51.502;7.414;2023-06-19T03:10:45;6.27;;;5.63;;
2542;SDS011;1116;51.502;7.414;2023-06-19T03:13:16;7.10;;;5.90;;
2542;SDS011;1116;51.502;7.414;2023-06-19T03:15:47;6.23;;;5.63;;
2542;SDS011;1116;51.502;7.414;2023-06-19T03:18:18;6.30;;;5.80;;
2542;SDS011;1116;51.502;7.414;2023-06-19T03:20:50;6.10;;;5.60;;
2542;SDS011;1116;51.502;7.414;2023-06-19T03:23:21;6.50;;;6.00;;
2542;SDS011;1116;51.502;7.414;2023-06-19T03:25:54;6.50;;;5.90;;
2542;SDS011;1116;51.502;7.414;2023-06-19T03:28:25;6.00;;;5.50;;
2542;SDS011;1116;51.502;7.414;2023-06-19T03:30:56;6.37;;;5.87;;
2542;SDS011;1116;51.502;7.414;2023-06-19T03:33:28;5.83;;;5.33;;
2542;SDS011;1116;51.502;7.414;2023-06-19T03:35:59;5.77;;;5.37;;
2542;SDS011;1116;51.502;7.414;2023-06-19T03:38:31;6.03;;;4.53;;
2542;SDS011;1116;51.502;7.414;2023-06-19T03:41:05;4.63;;;4.33;;
2542;SDS011;1116;51.502;7.414;2023-06-19T03:43:35;6.07;;;4.43;;
2542;SDS011;1116;51.502;7.414;2023-06-19T03:46:07;4.30;;;3.90;;
2542;SDS011;1116;51.502;7.414;2023-06-19T03:48:38;3.67;;;3.40;;
2542;SDS011;1116;51.502;7.414;2023-06-19T03:51:09;5.00;;;4.60;;
2542;SDS011;1116;51.502;7.414;2023-06-19T03:53:40;5.83;;;4.40;;
2542;SDS011;1116;51.502;7.414;2023-06-19T03:56:13;4.80;;;4.33;;
2542;SDS011;1116;51.502;7.414;2023-06-19T03:58:44;4.27;;;3.87;;
2542;SDS011;1116;51.502;7.414;2023-06-19T04:01:15;4.07;;;3.77;;
2542;SDS011;1116;51.502;7.414;2023-06-19T04:03:46;4.10;;;3.80;;
2542;SDS011;1116;51.502;7.414;2023-06-19T04:06:17;3.73;;;3.53;;
2542;SDS011;1116;51.502;7.414;2023-06-19T04:08:48;4.30;;;4.00;;
2542;SDS011;1116;51.502;7.414;2023-06-19T04:11:22;4.03;;;3.73;;
2542;SDS011;1116;51.502;7.414;2023-06-19T04:13:53;4.07;;;3.50;;
2542;SDS011;1116;51.502;7.414;2023-06-19T04:16:24;4.07;;;3.70;;
2542;SDS011;1116;51.502;7.414;2023-06-19T04:18:55;3.70;;;3.40;;
2542;SDS011;1116;51.502;7.414;2023-06-19T04:21:26;4.50;;;4.03;;
2542;SDS011;1116;51.502;7.414;2023-06-19T04:23:57;4.37;;;4.07;;
2542;SDS011;1116;51.502;7.414;2023-06-19T04:26:30;3.60;;;3.37;;
2542;SDS011;1116;51.502;7.414;2023-06-19T04:29:01;4.27;;;3.80;;
2542;SDS011;1116;51.502;7.414;2023-06-19T04:31:34;4.60;;;3.80;;
2542;SDS011;1116;51.502;7.414;2023-06-19T04:34:09;4.17;;;3.87;;
2542;SDS011;1116;51.502;7.414;2023-06-19T04:36:41;4.50;;;3.70;;
2542;SDS011;1116;51.502;7.414;2023-06-19T04:39:13;4.43;;;3.43;;
2542;SDS011;1116;51.502;7.414;2023-06-19T04:41:46;4.70;;;3.93;;
2542;SDS011;1116;51.502;7.414;2023-06-19T04:44:17;4.97;;;3.53;;
2542;SDS011;1116;51.502;7.414;2023-06-19T04:46:48;3.83;;;3.53;;
2542;SDS011;1116;51.502;7.414;2023-06-19T04:49:28;3.43;;;3.13;;
2542;SDS011;1116;51.502;7.414;2023-06-19T04:52:00;5.60;;;3.50;;
2542;SDS011;1116;51.502;7.414;2023-06-19T04:54:31;3.70;;;3.40;;
2542;SDS011;1116;51.502;7.414;2023-06-19T04:57:05;3.93;;;3.63;;
2542;SDS011;1116;51.502;7.414;2023-06-19T04:59:38;3.60;;;3.30;;
2542;SDS011;1116;51.502;7.414;2023-06-19T05:02:09;3.77;;;3.50;;
2542;SDS011;1116;51.502;7.414;2023-06-19T05:04:43;3.43;;;3.23;;
2542;SDS011;1116;51.502;7.414;2023-06-19T05:07:14;4.13;;;3.60;;
2542;SDS011;1116;51.502;7.414;2023-06-19T05:09:45;4.03;;;3.63;;
2542;SDS011;1116;51.502;7.414;2023-06-19T05:12:19;3.43;;;2.90;;
2542;SDS011;1116;51.502;7.414;2023-06-19T05:14:50;2.87;;;2.67;;
2542;SDS011;1116;51.502;7.414;2023-06-19T05:17:21;3.33;;;2.80;;
2542;SDS011;1116;51.502;7.414;2023-06-19T05:19:52;4.90;;;3.23;;
2542;SDS011;1116;51.502;7.414;2023-06-19T05:22:23;3.17;;;2.87;;
2542;SDS011;1116;51.502;7.414;2023-06-19T05:24:54;3.77;;;3.10;;
2542;SDS011;1116;51.502;7.414;2023-06-19T05:27:28;3.40;;;3.10;;
2542;SDS011;1116;51.502;7.414;2023-06-19T05:29:59;3.30;;;3.00;;
2542;SDS011;1116;51.502;7.414;2023-06-19T05:32:30;2.70;;;2.50;;
2542;SDS011;1116;51.502;7.414;2023-06-19T05:35:01;2.90;;;2.70;;
2542;SDS011;1116;51.502;7.414;2023-06-19T05:37:32;3.50;;;3.20;;
2542;SDS011;1116;51.502;7.414;2023-06-19T05:40:06;3.37;;;3.17;;
2542;SDS011;1116;51.502;7.414;2023-06-19T05:42:43;3.53;;;2.80;;
2542;SDS011;1116;51.502;7.414;2023-06-19T05:45:14;3.27;;;2.70;;
2542;SDS011;1116;51.502;7.414;2023-06-19T05:47:45;2.93;;;2.73;;
2542;SDS011;1116;51.502;7.414;2023-06-19T05:50:16;3.60;;;2.90;;
2542;SDS011;1116;51.502;7.414;2023-06-19T05:52:47;2.80;;;2.60;;
2542;SDS011;1116;51.502;7.414;2023-06-19T05:55:18;3.13;;;2.60;;
2542;SDS011;1116;51.502;7.414;2023-06-19T05:57:52;2.20;;;2.10;;
2542;SDS011;1116;51.502;7.414;2023-06-19T06:00:23;3.73;;;2.33;;
2542;SDS011;1116;51.502;7.414;2023-06-19T06:02:54;2.33;;;2.13;;
2542;SDS011;1116;51.502;7.414;2023-06-19T06:05:27;2.93;;;2.40;;
2542;SDS011;1116;51.502;7.414;2023-06-19T06:07:58;2.43;;;2.20;;
2542;SDS011;1116;51.502;7.414;2023-06-19T06:10:29;2.83;;;2.20;;
2542;SDS011;1116;51.502;7.414;2023-06-19T06:13:03;4.77;;;2.40;;
2542;SDS011;1116;51.502;7.414;2023-06-19T06:15:34;2.30;;;2.20;;
2542;SDS011;1116;51.502;7.414;2023-06-19T06:18:05;2.70;;;2.50;;
2542;SDS011;1116;51.502;7.414;2023-06-19T06:20:36;4.00;;;2.50;;
2542;SDS011;1116;51.502;7.414;2023-06-19T06:23:10;2.90;;;2.60;;
2542;SDS011;1116;51.502;7.414;2023-06-19T06:25:41;3.60;;;2.40;;
2542;SDS011;1116;51.502;7.414;2023-06-19T06:28:15;2.20;;;2.10;;
2542;SDS011;1116;51.502;7.414;2023-06-19T06:30:46;2.50;;;2.30;;
2542;SDS011;1116;51.502;7.414;2023-06-19T06:33:17;2.63;;;2.53;;
2542;SDS011;1116;51.502;7.414;2023-06-19T06:35:48;2.80;;;2.17;;
2542;SDS011;1116;51.502;7.414;2023-06-19T06:38:19;2.60;;;2.30;;
2542;SDS011;1116;51.502;7.414;2023-06-19T06:40:50;2.73;;;2.53;;
2542;SDS011;1116;51.502;7.414;2023-06-19T06:43:24;3.30;;;2.27;;
2542;SDS011;1116;51.502;7.414;2023-06-19T06:45:55;4.23;;;2.50;;
2542;SDS011;1116;51.502;7.414;2023-06-19T06:48:26;2.47;;;2.27;;
2542;SDS011;1116;51.502;7.414;2023-06-19T06:50:57;2.80;;;2.60;;
2542;SDS011;1116;51.502;7.414;2023-06-19T06:53:29;2.73;;;2.20;;
2542;SDS011;1116;51.502;7.414;2023-06-19T06:56:00;2.43;;;2.30;;
2542;SDS011;1116;51.502;7.414;2023-06-19T06:58:34;2.63;;;2.40;;
2542;SDS011;1116;51.502;7.414;2023-06-19T07:01:06;2.77;;;2.50;;
2542;SDS011;1116;51.502;7.414;2023-06-19T07:03:37;2.90;;;2.70;;
2542;SDS011;1116;51.502;7.414;2023-06-19T07:06:08;3.40;;;2.67;;
2542;SDS011;1116;51.502;7.414;2023-06-19T07:08:40;2.50;;;2.30;;
2542;SDS011;1116;51.502;7.414;2023-06-19T07:11:16;2.70;;;2.50;;
2542;SDS011;1116;51.502;7.414;2023-06-19T07:13:49;2.70;;;2.47;;
2542;SDS011;1116;51.502;7.414;2023-06-19T07:16:20;3.40;;;2.27;;
2542;SDS011;1116;51.502;7.414;2023-06-19T07:18:51;3.30;;;2.67;;
2542;SDS011;1116;51.502;7.414;2023-06-19T07:21:22;2.67;;;2.47;;
2542;SDS011;1116;51.502;7.414;2023-06-19T07:23:53;2.90;;;2.70;;
2542;SDS011;1116;51.502;7.414;2023-06-19T07:26:25;3.73;;;2.70;;
2542;SDS011;1116;51.502;7.414;2023-06-19T07:28:58;5.93;;;2.80;;
2542;SDS011;1116;51.502;7.414;2023-06-19T07:31:29;5.10;;;2.90;;
2542;SDS011;1116;51.502;7.414;2023-06-19T07:34:00;2.47;;;2.27;;
2542;SDS011;1116;51.502;7.414;2023-06-19T07:36:31;3.93;;;2.30;;
2542;SDS011;1116;51.502;7.414;2023-06-19T07:39:02;3.30;;;2.73;;
2542;SDS011;1116;51.502;7.414;2023-06-19T07:41:33;2.80;;;2.60;;
2542;SDS011;1116;51.502;7.414;2023-06-19T07:44:07;3.87;;;2.70;;
2542;SDS011;1116;51.502;7.414;2023-06-19T07:46:41;2.70;;;2.50;;
2542;SDS011;1116;51.502;7.414;2023-06-19T07:49:12;4.73;;;2.60;;
2542;SDS011;1116;51.502;7.414;2023-06-19T07:51:43;3.00;;;2.80;;
2542;SDS011;1116;51.502;7.414;2023-06-19T07:54:14;3.10;;;2.47;;
2542;SDS011;1116;51.502;7.414;2023-06-19T07:56:45;2.90;;;2.60;;
2542;SDS011;1116;51.502;7.414;2023-06-19T07:59:19;4.13;;;2.70;;
2542;SDS011;1116;51.502;7.414;2023-06-19T08:01:51;2.60;;;2.40;;
2542;SDS011;1116;51.502;7.414;2023-06-19T08:04:22;3.47;;;2.33;;
2542;SDS011;1116;51.502;7.414;2023-06-19T08:06:53;2.80;;;2.30;;
2542;SDS011;1116;51.502;7.414;2023-06-19T08:09:24;2.70;;;2.50;;
2542;SDS011;1116;51.502;7.414;2023-06-19T08:11:55;5.83;;;2.70;;
2542;SDS011;1116;51.502;7.414;2023-06-19T08:14:29;2.80;;;2.60;;
2542;SDS011;1116;51.502;7.414;2023-06-19T08:17:00;3.00;;;2.57;;
2542;SDS011;1116;51.502;7.414;2023-06-19T08:19:31;3.70;;;2.30;;
2542;SDS011;1116;51.502;7.414;2023-06-19T08:22:02;3.87;;;3.00;;
2542;SDS011;1116;51.502;7.414;2023-06-19T08:24:33;2.77;;;2.20;;
2542;SDS011;1116;51.502;7.414;2023-06-19T08:27:06;2.93;;;2.57;;
2542;SDS011;1116;51.502;7.414;2023-06-19T08:29:40;3.57;;;2.80;;
2542;SDS011;1116;51.502;7.414;2023-06-19T08:32:11;2.80;;;2.60;;
2542;SDS011;1116;51.502;7.414;2023-06-19T08:34:42;4.00;;;2.57;;
2542;SDS011;1116;51.502;7.414;2023-06-19T08:37:13;3.83;;;2.87;;
2542;SDS011;1116;51.502;7.414;2023-06-19T08:39:44;3.07;;;2.87;;
2542;SDS011;1116;51.502;7.414;2023-06-19T08:42:15;3.47;;;2.90;;
2542;SDS011;1116;51.502;7.414;2023-06-19T08:44:49;2.93;;;2.60;;
2542;SDS011;1116;51.502;7.414;2023-06-19T08:47:20;4.20;;;2.57;;
2542;SDS011;1116;51.502;7.414;2023-06-19T08:49:51;2.90;;;2.67;;
2542;SDS011;1116;51.502;7.414;2023-06-19T08:52:22;3.00;;;2.70;;
2542;SDS011;1116;51.502;7.414;2023-06-19T08:54:53;3.47;;;2.67;;
2542;SDS011;1116;51.502;7.414;2023-06-19T08:57:32;2.97;;;2.70;;
2542;SDS011;1116;51.502;7.414;2023-06-19T09:00:07;3.17;;;2.77;;
2542;SDS011;1116;51.502;7.414;2023-06-19T09:02:40;4.07;;;3.00;;
2542;SDS011;1116;51.502;7.414;2023-06-19T09:05:19;4.53;;;2.87;;
2542;SDS011;1116;51.502;7.414;2023-06-19T09:07:57;4.37;;;3.10;;
2542;SDS011;1116;51.502;7.414;2023-06-19T09:10:29;4.20;;;2.77;;
2542;SDS011;1116;51.502;7.414;2023-06-19T09:13:00;2.73;;;2.53;;
2542;SDS011;1116;51.502;7.414;2023-06-19T09:15:35;3.17;;;2.87;;
2542;SDS011;1116;51.502;7.414;2023-06-19T09:18:09;4.20;;;2.63;;
2542;SDS011;1116;51.502;7.414;2023-06-19T09:20:41;2.97;;;2.67;;
2542;SDS011;1116;51.502;7.414;2023-06-19T09:23:17;3.20;;;2.90;;
2542;SDS011;1116;51.502;7.414;2023-06-19T09:25:48;5.90;;;2.50;;
2542;SDS011;1116;51.502;7.414;2023-06-19T09:28:21;2.50;;;2.30;;
2542;SDS011;1116;51.502;7.414;2023-06-19T09:30:57;2.23;;;2.07;;
2542;SDS011;1116;51.502;7.414;2023-06-19T09:33:29;2.43;;;2.23;;
2542;SDS011;1116;51.502;7.414;2023-06-19T09:36:03;4.30;;;2.27;;
2542;SDS011;1116;51.502;7.414;2023-06-19T09:38:36;2.50;;;2.23;;
2542;SDS011;1116;51.502;7.414;2023-06-19T09:41:08;3.00;;;2.27;;
2542;SDS011;1116;51.502;7.414;2023-06-19T09:43:40;2.70;;;2.37;;
2542;SDS011;1116;51.502;7.414;2023-06-19T09:46:16;2.17;;;2.00;;
2542;SDS011;1116;51.502;7.414;2023-06-19T09:48:48;3.03;;;1.93;;
2542;SDS011;1116;51.502;7.414;2023-06-19T09:51:27;2.57;;;2.20;;
2542;SDS011;1116;51.502;7.414;2023-06-19T09:54:01;2.40;;;2.20;;
2542;SDS011;1116;51.502;7.414;2023-06-19T09:56:34;4.03;;;2.50;;
2542;SDS011;1116;51.502;7.414;2023-06-19T09:59:06;3.50;;;2.60;;
2542;SDS011;1116;51.502;7.414;2023-06-19T10:01:40;4.43;;;2.40;;
2542;SDS011;1116;51.502;7.414;2023-06-19T10:04:13;2.83;;;2.20;;
2542;SDS011;1116;51.502;7.414;2023-06-19T10:06:45;3.60;;;2.70;;
2542;SDS011;1116;51.502;7.414;2023-06-19T10:09:17;2.53;;;2.33;;
2542;SDS011;1116;51.502;7.414;2023-06-19T10:11:49;2.80;;;2.60;;
2542;SDS011;1116;51.502;7.414;2023-06-19T10:14:22;4.03;;;3.50;;
2542;SDS011;1116;51.502;7.414;2023-06-19T10:16:56;2.50;;;2.30;;
2542;SDS011;1116;51.502;7.414;2023-06-19T10:19:27;4.40;;;3.00;;
2542;SDS011;1116;51.502;7.414;2023-06-19T10:21:58;3.50;;;3.20;;
2542;SDS011;1116;51.502;7.414;2023-06-19T10:24:29;3.47;;;2.70;;
2542;SDS011;1116;51.502;7.414;2023-06-19T10:27:02;3.47;;;2.83;;
2542;SDS011;1116;51.502;7.414;2023-06-19T10:29:37;2.83;;;2.63;;
2542;SDS011;1116;51.502;7.414;2023-06-19T10:32:31;6.13;;;2.80;;
2542;SDS011;1116;51.502;7.414;2023-06-19T10:35:10;4.70;;;3.07;;
2542;SDS011;1116;51.502;7.414;2023-06-19T10:37:41;2.83;;;2.60;;
2542;SDS011;1116;51.502;7.414;2023-06-19T10:40:13;3.70;;;3.20;;
2542;SDS011;1116;51.502;7.414;2023-06-19T10:42:44;3.30;;;3.00;;
2542;SDS011;1116;51.502;7.414;2023-06-19T10:45:15;2.93;;;2.70;;
2542;SDS011;1116;51.502;7.414;2023-06-19T10:47:50;3.43;;;2.90;;
2542;SDS011;1116;51.502;7.414;2023-06-19T10:50:22;3.37;;;2.80;;
2542;SDS011;1116;51.502;7.414;2023-06-19T10:52:53;3.90;;;2.97;;
2542;SDS011;1116;51.502;7.414;2023-06-19T10:55:25;3.97;;;3.13;;
2542;SDS011;1116;51.502;7.414;2023-06-19T10:57:56;3.53;;;3.17;;
2542;SDS011;1116;51.502;7.414;2023-06-19T11:00:28;4.33;;;3.10;;
2542;SDS011;1116;51.502;7.414;2023-06-19T11:03:02;3.13;;;2.83;;
2542;SDS011;1116;51.502;7.414;2023-06-19T11:05:35;3.30;;;3.00;;
2542;SDS011;1116;51.502;7.414;2023-06-19T11:08:06;4.43;;;3.30;;
2542;SDS011;1116;51.502;7.414;2023-06-19T11:10:37;3.40;;;3.20;;
2542;SDS011;1116;51.502;7.414;2023-06-19T11:13:12;3.80;;;3.20;;
2542;SDS011;1116;51.502;7.414;2023-06-19T11:15:44;3.30;;;3.10;;
2542;SDS011;1116;51.502;7.414;2023-06-19T11:18:19;4.80;;;2.93;;
2542;SDS011;1116;51.502;7.414;2023-06-19T11:20:51;4.50;;;3.20;;
2542;SDS011;1116;51.502;7.414;2023-06-19T11:23:26;3.90;;;3.60;;
2542;SDS011;1116;51.502;7.414;2023-06-19T11:26:01;3.23;;;3.03;;
2542;SDS011;1116;51.502;7.414;2023-06-19T11:28:33;5.60;;;3.43;;
2542;SDS011;1116;51.502;7.414;2023-06-19T11:31:07;3.00;;;2.80;;
2542;SDS011;1116;51.502;7.414;2023-06-19T11:37:17;3.90;;;3.23;;
2542;SDS011;1116;51.502;7.414;2023-06-19T11:39:50;4.33;;;3.57;;
2542;SDS011;1116;51.502;7.414;2023-06-19T11:42:21;5.30;;;4.23;;
2542;SDS011;1116;51.502;7.414;2023-06-19T11:44:53;3.13;;;2.93;;
2542;SDS011;1116;51.502;7.414;2023-06-19T11:47:24;4.03;;;3.60;;
2542;SDS011;1116;51.502;7.414;2023-06-19T11:49:56;3.50;;;3.20;;
2542;SDS011;1116;51.502;7.414;2023-06-19T11:52:30;4.40;;;3.80;;
2542;SDS011;1116;51.502;7.414;2023-06-19T11:55:01;6.20;;;3.83;;
2542;SDS011;1116;51.502;7.414;2023-06-19T11:57:32;3.47;;;3.13;;
2542;SDS011;1116;51.502;7.414;2023-06-19T12:00:03;9.30;;;3.63;;
2542;SDS011;1116;51.502;7.414;2023-06-19T12:02:43;9.80;;;4.40;;
2542;SDS011;1116;51.502;7.414;2023-06-19T12:05:15;4.73;;;4.00;;
2542;SDS011;1116;51.502;7.414;2023-06-19T12:07:49;4.10;;;3.70;;
2542;SDS011;1116;51.502;7.414;2023-06-19T12:10:20;5.90;;;3.60;;
2542;SDS011;1116;51.502;7.414;2023-06-19T12:12:52;5.60;;;3.73;;
2542;SDS011;1116;51.502;7.414;2023-06-19T12:15:24;3.83;;;3.53;;
2542;SDS011;1116;51.502;7.414;2023-06-19T12:17:55;4.60;;;3.93;;
2542;SDS011;1116;51.502;7.414;2023-06-19T12:20:26;3.80;;;3.50;;
2542;SDS011;1116;51.502;7.414;2023-06-19T12:23:00;4.30;;;3.90;;
2542;SDS011;1116;51.502;7.414;2023-06-19T12:25:31;3.60;;;3.30;;
2542;SDS011;1116;51.502;7.414;2023-06-19T12:28:02;5.63;;;3.63;;
2542;SDS011;1116;51.502;7.414;2023-06-19T12:30:36;6.63;;;3.80;;
2542;SDS011;1116;51.502;7.414;2023-06-19T12:33:07;5.30;;;3.87;;
2542;SDS011;1116;51.502;7.414;2023-06-19T12:35:39;5.50;;;3.80;;
2542;SDS011;1116;51.502;7.414;2023-06-19T12:38:21;3.53;;;3.23;;
2542;SDS011;1116;51.502;7.414;2023-06-19T12:40:54;5.00;;;3.93;;
2542;SDS011;1116;51.502;7.414;2023-06-19T12:43:25;4.50;;;4.10;;
2542;SDS011;1116;51.502;7.414;2023-06-19T12:45:59;4.77;;;4.10;;
2542;SDS011;1116;51.502;7.414;2023-06-19T12:48:31;5.00;;;3.40;;
2542;SDS011;1116;51.502;7.414;2023-06-19T12:51:07;3.50;;;3.20;;
2542;SDS011;1116;51.502;7.414;2023-06-19T12:53:41;4.63;;;3.60;;
2542;SDS011;1116;51.502;7.414;2023-06-19T12:56:14;4.83;;;3.80;;
2542;SDS011;1116;51.502;7.414;2023-06-19T12:58:45;5.60;;;3.83;;
2542;SDS011;1116;51.502;7.414;2023-06-19T13:01:16;6.33;;;4.20;;
2542;SDS011;1116;51.502;7.414;2023-06-19T13:03:47;4.00;;;3.60;;
2542;SDS011;1116;51.502;7.414;2023-06-19T13:06:19;4.30;;;4.00;;
2542;SDS011;1116;51.502;7.414;2023-06-19T13:08:52;3.60;;;3.30;;
2542;SDS011;1116;51.502;7.414;2023-06-19T13:11:23;3.93;;;3.63;;
2542;SDS011;1116;51.502;7.414;2023-06-19T13:13:55;4.37;;;3.73;;
2542;SDS011;1116;51.502;7.414;2023-06-19T13:16:27;4.37;;;3.50;;
2542;SDS011;1116;51.502;7.414;2023-06-19T13:19:07;6.30;;;4.17;;
2542;SDS011;1116;51.502;7.414;2023-06-19T13:21:42;3.63;;;3.33;;
2542;SDS011;1116;51.502;7.414;2023-06-19T13:24:16;4.13;;;3.57;;
2542;SDS011;1116;51.502;7.414;2023-06-19T13:26:48;4.73;;;3.53;;
2542;SDS011;1116;51.502;7.414;2023-06-19T13:29:19;5.73;;;4.50;;
2542;SDS011;1116;51.502;7.414;2023-06-19T13:31:50;4.70;;;4.30;;
2542;SDS011;1116;51.502;7.414;2023-06-19T13:34:21;4.20;;;3.80;;
2542;SDS011;1116;51.502;7.414;2023-06-19T13:36:52;5.40;;;3.83;;
2542;SDS011;1116;51.502;7.414;2023-06-19T13:39:27;5.70;;;3.70;;
2542;SDS011;1116;51.502;7.414;2023-06-19T13:42:01;4.60;;;4.20;;
2542;SDS011;1116;51.502;7.414;2023-06-19T13:44:32;3.73;;;3.40;;
2542;SDS011;1116;51.502;7.414;2023-06-19T13:47:03;4.50;;;3.90;;
2542;SDS011;1116;51.502;7.414;2023-06-19T13:49:35;3.87;;;3.37;;
2542;SDS011;1116;51.502;7.414;2023-06-19T13:52:06;4.23;;;3.90;;
2542;SDS011;1116;51.502;7.414;2023-06-19T13:54:40;4.30;;;3.90;;
2542;SDS011;1116;51.502;7.414;2023-06-19T13:57:11;4.03;;;3.63;;
2542;SDS011;1116;51.502;7.414;2023-06-19T13:59:42;4.77;;;4.40;;
2542;SDS011;1116;51.502;7.414;2023-06-19T14:02:14;4.80;;;3.77;;
2542;SDS011;1116;51.502;7.414;2023-06-19T14:04:45;5.37;;;3.67;;
2542;SDS011;1116;51.502;7.414;2023-06-19T14:07:16;4.13;;;3.73;;
2542;SDS011;1116;51.502;7.414;2023-06-19T14:09:52;4.33;;;3.97;;
2542;SDS011;1116;51.502;7.414;2023-06-19T14:12:23;4.20;;;3.60;;
2542;SDS011;1116;51.502;7.414;2023-06-19T14:14:54;4.50;;;4.10;;
2542;SDS011;1116;51.502;7.414;2023-06-19T14:17:25;4.67;;;4.00;;
2542;SDS011;1116;51.502;7.414;2023-06-19T14:19:56;6.53;;;3.83;;
2542;SDS011;1116;51.502;7.414;2023-06-19T14:22:28;4.33;;;4.03;;
2542;SDS011;1116;51.502;7.414;2023-06-19T14:25:02;4.53;;;4.10;;
2542;SDS011;1116;51.502;7.414;2023-06-19T14:27:35;3.97;;;3.67;;
2542;SDS011;1116;51.502;7.414;2023-06-19T14:30:06;5.50;;;4.00;;
2542;SDS011;1116;51.502;7.414;2023-06-19T14:32:38;4.37;;;3.87;;
2542;SDS011;1116;51.502;7.414;2023-06-19T14:35:09;4.40;;;3.80;;
2542;SDS011;1116;51.502;7.414;2023-06-19T14:37:40;4.40;;;4.00;;
2542;SDS011;1116;51.502;7.414;2023-06-19T14:40:14;4.83;;;4.00;;
2542;SDS011;1116;51.502;7.414;2023-06-19T14:42:45;4.27;;;3.97;;
2542;SDS011;1116;51.502;7.414;2023-06-19T14:45:17;4.13;;;3.73;;
2542;SDS011;1116;51.502;7.414;2023-06-19T14:47:51;5.60;;;4.20;;
2542;SDS011;1116;51.502;7.414;2023-06-19T14:50:22;5.33;;;3.87;;
2542;SDS011;1116;51.502;7.414;2023-06-19T14:52:53;4.60;;;4.20;;
2542;SDS011;1116;51.502;7.414;2023-06-19T14:55:26;5.57;;;4.10;;
2542;SDS011;1116;51.502;7.414;2023-06-19T14:57:57;4.33;;;4.03;;
2542;SDS011;1116;51.502;7.414;2023-06-19T15:00:28;4.67;;;4.27;;
2542;SDS011;1116;51.502;7.414;2023-06-19T15:02:59;5.57;;;4.40;;
2542;SDS011;1116;51.502;7.414;2023-06-19T15:05:31;7.37;;;4.27;;
2542;SDS011;1116;51.502;7.414;2023-06-19T15:08:02;7.80;;;4.53;;
2542;SDS011;1116;51.502;7.414;2023-06-19T15:10:38;4.33;;;4.00;;
2542;SDS011;1116;51.502;7.414;2023-06-19T15:13:08;4.60;;;4.20;;
2542;SDS011;1116;51.502;7.414;2023-06-19T15:15:40;4.30;;;3.87;;
2542;SDS011;1116;51.502;7.414;2023-06-19T15:18:11;4.60;;;4.20;;
2542;SDS011;1116;51.502;7.414;2023-06-19T15:20:42;4.60;;;4.20;;
2542;SDS011;1116;51.502;7.414;2023-06-19T15:23:14;5.27;;;4.50;;
2542;SDS011;1116;51.502;7.414;2023-06-19T15:25:47;4.90;;;4.50;;
2542;SDS011;1116;51.502;7.414;2023-06-19T15:28:19;3.93;;;3.63;;
2542;SDS011;1116;51.502;7.414;2023-06-19T15:30:50;4.27;;;3.50;;
2542;SDS011;1116;51.502;7.414;2023-06-19T15:33:22;4.10;;;3.80;;
2542;SDS011;1116;51.502;7.414;2023-06-19T15:35:53;5.73;;;4.00;;
2542;SDS011;1116;51.502;7.414;2023-06-19T15:38:24;4.47;;;4.13;;
2542;SDS011;1116;51.502;7.414;2023-06-19T15:40:58;6.00;;;3.93;;
2542;SDS011;1116;51.502;7.414;2023-06-19T15:43:29;4.90;;;4.20;;
2542;SDS011;1116;51.502;7.414;2023-06-19T15:46:00;9.53;;;4.40;;
2542;SDS011;1116;51.502;7.414;2023-06-19T15:48:33;5.00;;;4.60;;
2542;SDS011;1116;51.502;7.414;2023-06-19T15:51:05;5.67;;;4.37;;